createdAt,value
2023-03-27T00:03:31.853Z,437.00
2023-03-27T00:07:32.056Z,443.00
2023-03-27T00:11:31.688Z,444.00
2023-03-27T00:15:31.678Z,446.00
2023-03-27T00:19:32.068Z,443.00
2023-03-27T00:23:32.072Z,444.00
2023-03-27T00:27:31.571Z,441.00
2023-03-27T00:31:31.619Z,435.00
2023-03-27T00:35:31.600Z,437.00
2023-03-27T00:39:31.461Z,438.00
2023-03-27T00:43:31.581Z,441.00
2023-03-27T00:47:31.621Z,437.00
2023-03-27T00:51:31.332Z,445.00
2023-03-27T00:55:31.577Z,442.00
2023-03-27T00:59:31.674Z,444.00
2023-03-27T01:03:31.692Z,443.00
2023-03-27T01:07:31.314Z,441.00
2023-03-27T01:11:31.573Z,444.00
2023-03-27T01:15:31.563Z,450.00
2023-03-27T01:19:31.573Z,449.00
2023-03-27T01:23:58.561Z,445.00
2023-03-27T01:27:32.469Z,443.00
2023-03-27T01:31:31.612Z,445.00
2023-03-27T01:35:31.626Z,445.00
2023-03-27T01:39:31.350Z,441.00
2023-03-27T01:43:31.608Z,444.00
2023-03-27T01:47:31.342Z,443.00
2023-03-27T01:51:31.583Z,435.00
2023-03-27T01:55:31.623Z,435.00
2023-03-27T01:59:31.594Z,436.00
2023-03-27T02:03:31.475Z,435.00
2023-03-27T02:07:31.581Z,433.00
2023-03-27T02:11:31.578Z,436.00
2023-03-27T02:15:32.117Z,436.00
2023-03-27T02:19:32.099Z,441.00
2023-03-27T02:23:31.679Z,436.00
2023-03-27T02:27:32.098Z,439.00
2023-03-27T02:31:34.398Z,440.00
2023-03-27T02:35:32.122Z,441.00
2023-03-27T02:39:31.692Z,437.00
2023-03-27T02:43:31.636Z,437.00
2023-03-27T02:47:32.191Z,443.00
2023-03-27T02:51:31.614Z,445.00
2023-03-27T02:55:31.619Z,443.00
2023-03-27T02:59:31.519Z,447.00
2023-03-27T03:03:31.521Z,443.00
2023-03-27T03:07:31.707Z,446.00
2023-03-27T03:11:31.387Z,443.00
2023-03-27T03:15:31.627Z,443.00
2023-03-27T03:19:31.348Z,438.00
2023-03-27T03:23:31.633Z,441.00
2023-03-27T03:27:31.643Z,445.00
2023-03-27T03:31:31.290Z,443.00
2023-03-27T03:35:31.691Z,439.00
2023-03-27T03:39:31.175Z,438.00
2023-03-27T03:43:31.141Z,442.00
2023-03-27T03:47:31.152Z,441.00
2023-03-27T03:51:31.028Z,439.00
2023-03-27T03:55:31.173Z,439.00
2023-03-27T03:59:30.944Z,439.00
2023-03-27T04:03:31.023Z,437.00
2023-03-27T04:07:31.126Z,437.00
2023-03-27T04:11:30.846Z,437.00
2023-03-27T04:15:31.149Z,442.00
2023-03-27T04:19:30.746Z,441.00
2023-03-27T04:23:31.176Z,435.00
2023-03-27T04:27:31.166Z,436.00
2023-03-27T04:31:30.882Z,436.00
2023-03-27T04:35:30.894Z,433.00
2023-03-27T04:39:30.871Z,437.00
2023-03-27T04:43:31.144Z,435.00
2023-03-27T04:47:31.333Z,439.00
2023-03-27T04:51:31.178Z,443.00
2023-03-27T04:55:31.046Z,440.00
2023-03-27T04:59:31.160Z,446.00
2023-03-27T05:03:31.146Z,449.00
2023-03-27T05:07:31.132Z,449.00
2023-03-27T05:11:31.201Z,445.00
2023-03-27T05:15:31.653Z,447.00
2023-03-27T05:19:31.258Z,452.00
2023-03-27T05:23:31.644Z,451.00
2023-03-27T05:27:31.658Z,448.00
2023-03-27T05:31:31.398Z,449.00
2023-03-27T05:35:31.752Z,452.00
2023-03-27T05:39:31.681Z,449.00
2023-03-27T05:43:31.673Z,500.00
2023-03-27T05:47:31.699Z,643.00
2023-03-27T05:51:31.637Z,689.00
2023-03-27T05:55:32.156Z,780.00
2023-03-27T05:59:32.159Z,755.00
2023-03-27T06:03:32.313Z,809.00
2023-03-27T06:07:32.091Z,973.00
2023-03-27T06:11:32.289Z,1011.00
2023-03-27T06:15:32.315Z,1038.00
2023-03-27T06:19:32.712Z,1145.00
2023-03-27T06:23:32.726Z,1193.00
2023-03-27T06:27:32.498Z,1281.00
2023-03-27T06:31:33.237Z,1314.00
2023-03-27T06:35:33.198Z,1358.00
2023-03-27T06:39:32.645Z,1442.00
2023-03-27T06:43:32.697Z,1465.00
2023-03-27T06:47:36.382Z,1514.00
2023-03-27T06:51:33.890Z,1041.00
2023-03-27T06:55:32.689Z,628.00
2023-03-27T06:59:32.711Z,798.00
2023-03-27T07:03:32.718Z,914.00
2023-03-27T07:07:32.511Z,1049.00
2023-03-27T07:11:32.694Z,1077.00
2023-03-27T07:15:32.687Z,1170.00
2023-03-27T07:19:33.210Z,1210.00
2023-03-27T07:23:33.344Z,1313.00
2023-03-27T07:27:33.302Z,1366.00
2023-03-27T07:31:51.560Z,1401.00
2023-03-27T07:35:34.775Z,1444.00
2023-03-27T07:39:33.685Z,1461.00
2023-03-27T07:43:33.713Z,1453.00
2023-03-27T07:47:33.445Z,1134.00
2023-03-27T07:51:33.771Z,1347.00
2023-03-27T07:55:33.710Z,1427.00
2023-03-27T07:59:33.724Z,1575.00
2023-03-27T08:03:33.947Z,1660.00
2023-03-27T08:07:33.932Z,1760.00
2023-03-27T08:11:34.291Z,1895.00
2023-03-27T08:15:33.979Z,1967.00
2023-03-27T08:19:33.989Z,2049.00
2023-03-27T08:23:34.089Z,2137.00
2023-03-27T08:27:34.213Z,2208.00
2023-03-27T08:31:34.381Z,2301.00
2023-03-27T08:35:34.615Z,2372.00
2023-03-27T08:39:34.783Z,2430.00
2023-03-27T08:43:34.891Z,2367.00
2023-03-27T08:47:35.043Z,1031.00
2023-03-27T08:51:35.104Z,1594.00
2023-03-27T08:55:35.109Z,1652.00
2023-03-27T08:59:35.353Z,1154.00
2023-03-27T09:03:35.507Z,946.00
2023-03-27T09:07:35.501Z,1001.00
2023-03-27T09:11:35.589Z,1081.00
2023-03-27T09:15:35.813Z,1168.00
2023-03-27T09:19:35.892Z,1279.00
2023-03-27T09:23:36.032Z,1322.00
2023-03-27T09:27:36.156Z,1367.00
2023-03-27T09:31:36.373Z,1423.00
2023-03-27T09:35:36.360Z,1471.00
2023-03-27T09:39:36.410Z,1535.00
2023-03-27T09:43:36.488Z,1588.00
2023-03-27T09:47:36.610Z,745.00
2023-03-27T09:51:36.611Z,857.00
2023-03-27T09:55:36.793Z,915.00
2023-03-27T09:59:36.874Z,909.00
2023-03-27T10:03:37.149Z,869.00
2023-03-27T10:07:37.255Z,839.00
2023-03-27T10:11:37.245Z,805.00
2023-03-27T10:15:37.051Z,777.00
2023-03-27T10:19:37.289Z,756.00
2023-03-27T10:23:37.910Z,730.00
2023-03-27T10:27:37.768Z,711.00
2023-03-27T10:31:38.008Z,689.00
2023-03-27T10:35:37.670Z,671.00
2023-03-27T10:39:37.784Z,653.00
2023-03-27T10:43:38.251Z,637.00
2023-03-27T10:47:38.286Z,668.00
2023-03-27T10:51:46.021Z,741.00
2023-03-27T10:55:38.988Z,809.00
2023-03-27T10:59:41.843Z,849.00
2023-03-27T11:03:38.389Z,915.00
2023-03-27T11:07:38.292Z,937.00
2023-03-27T11:11:37.887Z,954.00
2023-03-27T11:15:38.292Z,1050.00
2023-03-27T11:19:38.296Z,1023.00
2023-03-27T11:23:37.781Z,1033.00
2023-03-27T11:27:37.814Z,1058.00
2023-03-27T11:31:37.734Z,1089.00
2023-03-27T11:35:38.318Z,795.00
2023-03-27T11:39:38.279Z,884.00
2023-03-27T11:43:38.305Z,863.00
2023-03-27T11:47:38.038Z,893.00
2023-03-27T11:51:38.063Z,896.00
2023-03-27T11:55:38.321Z,888.00
2023-03-27T11:59:38.290Z,879.00
2023-03-27T12:03:38.189Z,868.00
2023-03-27T12:07:40.568Z,860.00
2023-03-27T12:11:39.294Z,857.00
2023-03-27T12:15:38.313Z,844.00
2023-03-27T12:19:39.211Z,833.00
2023-03-27T12:23:38.426Z,825.00
2023-03-27T12:27:38.554Z,812.00
2023-03-27T12:31:38.885Z,803.00
2023-03-27T12:35:39.320Z,799.00
2023-03-27T12:39:39.727Z,789.00
2023-03-27T12:43:39.064Z,776.00
2023-03-27T12:47:39.168Z,766.00
2023-03-27T12:51:39.208Z,762.00
2023-03-27T12:55:39.326Z,757.00
2023-03-27T12:59:39.372Z,749.00
2023-03-27T13:03:46.910Z,745.00
2023-03-27T13:07:39.486Z,745.00
2023-03-27T13:11:39.856Z,738.00
2023-03-27T13:15:39.421Z,732.00
2023-03-27T13:19:39.854Z,725.00
2023-03-27T13:23:39.309Z,716.00
2023-03-27T13:27:39.369Z,711.00
2023-03-27T13:31:39.397Z,709.00
2023-03-27T13:35:39.199Z,699.00
2023-03-27T13:39:39.359Z,696.00
2023-03-27T13:43:39.127Z,686.00
2023-03-27T13:47:39.858Z,682.00
2023-03-27T13:51:39.388Z,679.00
2023-03-27T13:55:39.294Z,676.00
2023-03-27T13:59:39.378Z,675.00
2023-03-27T14:03:39.441Z,673.00
2023-03-27T14:07:39.852Z,667.00
2023-03-27T14:11:39.561Z,670.00
2023-03-27T14:15:39.926Z,655.00
2023-03-27T14:19:39.720Z,645.00
2023-03-27T14:23:39.852Z,642.00
2023-03-27T14:27:40.352Z,641.00
2023-03-27T14:31:40.401Z,642.00
2023-03-27T14:35:40.084Z,640.00
2023-03-27T14:39:40.088Z,634.00
2023-03-27T14:43:40.392Z,630.00
2023-03-27T14:47:40.256Z,626.00
2023-03-27T14:51:40.366Z,621.00
2023-03-27T14:55:40.379Z,618.00
2023-03-27T14:59:40.421Z,615.00
2023-03-27T15:03:40.882Z,614.00
2023-03-27T15:07:40.886Z,609.00
2023-03-27T15:11:40.575Z,602.00
2023-03-27T15:15:40.946Z,598.00
2023-03-27T15:19:40.650Z,593.00
2023-03-27T15:23:40.866Z,593.00
2023-03-27T15:27:40.914Z,591.00
2023-03-27T15:31:40.901Z,582.00
2023-03-27T15:35:40.845Z,584.00
2023-03-27T15:39:40.908Z,580.00
2023-03-27T15:43:42.388Z,583.00
2023-03-27T15:47:41.491Z,580.00
2023-03-27T15:51:40.982Z,581.00
2023-03-27T15:55:41.069Z,579.00
2023-03-27T15:59:52.047Z,575.00
2023-03-27T16:03:42.189Z,574.00
2023-03-27T16:07:41.405Z,571.00
2023-03-27T16:11:41.227Z,569.00
2023-03-27T16:15:41.250Z,569.00
2023-03-27T16:19:41.302Z,567.00
2023-03-27T16:23:41.416Z,560.00
2023-03-27T16:27:41.618Z,558.00
2023-03-27T16:31:41.459Z,556.00
2023-03-27T16:35:41.455Z,555.00
2023-03-27T16:39:41.911Z,552.00
2023-03-27T16:43:41.510Z,546.00
2023-03-27T16:47:42.015Z,548.00
2023-03-27T16:51:41.638Z,545.00
2023-03-27T16:55:41.717Z,547.00
2023-03-27T16:59:41.913Z,548.00
2023-03-27T17:03:41.921Z,538.00
2023-03-27T17:07:42.417Z,538.00
2023-03-27T17:11:42.016Z,539.00
2023-03-27T17:15:42.398Z,536.00
2023-03-27T17:19:42.392Z,533.00
2023-03-27T17:23:42.425Z,535.00
2023-03-27T17:27:42.431Z,538.00
2023-03-27T17:31:42.530Z,538.00
2023-03-27T17:35:42.999Z,535.00
2023-03-27T17:39:42.918Z,530.00
2023-03-27T17:43:42.960Z,530.00
2023-03-27T17:47:42.991Z,536.00
2023-03-27T17:51:42.743Z,534.00
2023-03-27T17:55:42.930Z,528.00
2023-03-27T17:59:42.935Z,529.00
2023-03-27T18:03:42.911Z,523.00
2023-03-27T18:07:42.945Z,526.00
2023-03-27T18:11:42.884Z,526.00
2023-03-27T18:15:43.506Z,529.00
2023-03-27T18:19:43.446Z,527.00
2023-03-27T18:23:46.389Z,524.00
2023-03-27T18:27:43.937Z,522.00
2023-03-27T18:31:42.980Z,521.00
2023-03-27T18:35:42.971Z,519.00
2023-03-27T18:39:42.872Z,519.00
2023-03-27T18:43:42.981Z,520.00
2023-03-27T18:47:42.795Z,517.00
2023-03-27T18:51:42.945Z,514.00
2023-03-27T18:55:42.986Z,515.00
2023-03-27T18:59:42.978Z,517.00
2023-03-27T19:03:42.951Z,513.00
2023-03-27T19:07:44.322Z,511.00
2023-03-27T19:11:42.959Z,512.00
2023-03-27T19:15:42.954Z,511.00
2023-03-27T19:19:43.893Z,510.00
2023-03-27T19:23:42.470Z,510.00
2023-03-27T19:27:42.457Z,508.00
2023-03-27T19:31:42.476Z,506.00
2023-03-27T19:35:42.482Z,499.00
2023-03-27T19:39:42.465Z,498.00
2023-03-27T19:43:42.466Z,499.00
2023-03-27T19:47:42.326Z,500.00
2023-03-27T19:51:42.509Z,504.00
2023-03-27T19:55:42.483Z,500.00
2023-03-27T19:59:42.468Z,502.00
2023-03-27T20:03:42.249Z,498.00
2023-03-27T20:07:42.099Z,498.00
2023-03-27T20:11:42.473Z,501.00
2023-03-27T20:15:42.017Z,501.00
2023-03-27T20:19:41.990Z,502.00
2023-03-27T20:23:41.995Z,498.00
2023-03-27T20:27:41.998Z,496.00
2023-03-27T20:31:42.040Z,496.00
2023-03-27T20:35:41.830Z,499.00
2023-03-27T20:39:42.008Z,496.00
2023-03-27T20:43:41.734Z,498.00
2023-03-27T20:47:42.043Z,490.00
2023-03-27T20:51:42.003Z,492.00
2023-03-27T20:55:53.132Z,496.00
2023-03-27T20:59:42.650Z,496.00
2023-03-27T21:03:41.763Z,496.00
2023-03-27T21:07:42.016Z,494.00
2023-03-27T21:11:42.057Z,490.00
2023-03-27T21:15:42.006Z,488.00
2023-03-27T21:19:41.909Z,490.00
2023-03-27T21:23:42.547Z,486.00
2023-03-27T21:27:41.992Z,485.00
2023-03-27T21:31:42.194Z,491.00
2023-03-27T21:35:42.504Z,490.00
2023-03-27T21:39:42.079Z,484.00
2023-03-27T21:43:42.531Z,483.00
2023-03-27T21:47:47.647Z,478.00
2023-03-27T21:51:43.522Z,476.00
2023-03-27T21:55:42.580Z,478.00
2023-03-27T21:59:42.350Z,476.00
2023-03-27T22:03:42.366Z,474.00
2023-03-27T22:07:42.506Z,476.00
2023-03-27T22:11:42.569Z,479.00
2023-03-27T22:15:42.547Z,479.00
2023-03-27T22:19:42.473Z,478.00
2023-03-27T22:23:42.594Z,477.00
2023-03-27T22:27:42.535Z,478.00
2023-03-27T22:31:43.707Z,482.00
2023-03-27T22:35:43.068Z,475.00
2023-03-27T22:39:42.649Z,477.00
2023-03-27T22:43:43.033Z,474.00
2023-03-27T22:47:43.071Z,472.00
2023-03-27T22:51:43.037Z,469.00
2023-03-27T22:55:42.926Z,472.00
2023-03-27T22:59:43.023Z,470.00
2023-03-27T23:03:43.175Z,471.00
2023-03-27T23:07:43.540Z,466.00
2023-03-27T23:11:43.559Z,472.00
2023-03-27T23:15:43.221Z,467.00
2023-03-27T23:19:43.543Z,465.00
2023-03-27T23:23:43.266Z,466.00
2023-03-27T23:27:43.563Z,469.00
2023-03-27T23:31:43.598Z,468.00
2023-03-27T23:35:43.440Z,472.00
2023-03-27T23:39:43.536Z,475.00
2023-03-27T23:43:43.536Z,477.00
2023-03-27T23:47:44.083Z,475.00
2023-03-27T23:51:43.635Z,473.00
2023-03-27T23:55:44.052Z,469.00
2023-03-27T23:59:43.756Z,467.00
